Terminal Aerodrome Forecast
Issued by NWS Houston/Galveston, TX

Home | Current Version | Previous Version | Text Only | Print | Product List | Glossary On
Versions: 1 2 3 4 5 6 7 8 9 10 11 12 13 14 15 16 17 18 19 20 21 22 23 24 25 26 27 28 29 30 31 32 33 34 35 36 37 38 39 40
000
FTUS44 KHGX 281741
TAFGLS
TAF
KGLS 281741Z 2818/0118 07016G23KT P6SM OVC028
     FM282000 09011G20KT P6SM VCSH BKN025
     FM010300 08015KT 3SM -RA VCSH BKN008 OVC015
     FM010700 10014KT 4SM -SHRA VCSH OVC007
     FM011600 08011KT 2SM BR OVC003=

USA.gov is the U.S. government's official web portal to all federal, state and local government web resources and services.